createdAt,value
2023-02-19T00:02:15.658Z,101655.72
2023-02-19T00:04:42.834Z,101654.81
2023-02-19T00:07:09.974Z,101653.06
2023-02-19T00:09:37.111Z,101660.97
2023-02-19T00:12:04.306Z,101660.09
2023-02-19T00:14:31.271Z,101651.31
2023-02-19T00:16:58.297Z,101660.09
2023-02-19T00:19:25.507Z,101657.44
2023-02-19T00:21:53.474Z,101663.59
2023-02-19T00:24:21.743Z,101654.81
2023-02-19T00:26:49.240Z,101659.19
2023-02-19T00:29:20.511Z,101656.56
2023-02-19T00:31:48.489Z,101661.81
2023-02-19T00:34:15.791Z,101659.19
2023-02-19T00:36:43.745Z,101657.38
2023-02-19T00:39:15.679Z,101651.22
2023-02-19T00:41:44.034Z,101664.38
2023-02-19T00:44:12.317Z,101660.00
2023-02-19T00:46:48.363Z,101652.09
2023-02-19T00:49:22.790Z,101662.63
2023-02-19T00:51:52.553Z,101657.31
2023-02-19T00:54:20.470Z,101666.06
2023-02-19T00:56:48.006Z,101659.09
2023-02-19T00:59:15.800Z,101664.34
2023-02-19T01:01:44.607Z,101659.91
2023-02-19T01:04:11.801Z,101662.53
2023-02-19T01:06:38.869Z,101667.81
2023-02-19T01:09:07.788Z,101672.22
2023-02-19T01:11:35.821Z,101668.69
2023-02-19T01:14:04.889Z,101671.31
2023-02-19T01:16:32.638Z,101666.94
2023-02-19T01:19:00.771Z,101667.84
2023-02-19T01:21:29.530Z,101671.38
2023-02-19T01:23:58.040Z,101676.63
2023-02-19T01:26:30.073Z,101681.03
2023-02-19T01:28:58.213Z,101680.16
2023-02-19T01:31:26.040Z,101686.31
2023-02-19T01:34:04.620Z,101681.91
2023-02-19T01:36:34.319Z,101681.91
2023-02-19T01:39:05.034Z,101682.78
2023-02-19T01:41:36.467Z,101688.94
2023-02-19T01:44:12.493Z,101695.09
2023-02-19T01:46:42.629Z,101692.44
2023-02-19T01:49:26.199Z,101693.34
2023-02-19T01:52:04.543Z,101702.13
2023-02-19T01:54:38.161Z,101699.47
2023-02-19T01:57:13.546Z,101703.88
2023-02-19T01:59:41.192Z,101694.22
2023-02-19T02:02:09.414Z,101691.56
2023-02-19T02:04:36.746Z,101690.69
2023-02-19T02:07:26.347Z,101688.88
2023-02-19T02:10:12.585Z,101694.19
2023-02-19T02:12:39.698Z,101683.66
2023-02-19T02:15:07.880Z,101682.78
2023-02-19T02:17:51.514Z,101682.75
2023-02-19T02:20:44.616Z,101688.94
2023-02-19T02:23:56.064Z,101683.63
2023-02-19T02:26:46.603Z,101681.84
2023-02-19T02:29:45.420Z,101691.50
2023-02-19T02:32:20.109Z,101683.59
2023-02-19T02:35:01.207Z,101692.34
2023-02-19T02:37:34.610Z,101702.03
2023-02-19T02:40:07.463Z,101691.47
2023-02-19T02:42:35.893Z,101688.84
2023-02-19T02:45:36.804Z,101687.97
2023-02-19T02:48:18.890Z,101698.50
2023-02-19T02:51:35.156Z,101704.63
2023-02-19T02:54:27.711Z,101702.00
2023-02-19T02:56:56.588Z,101704.63
2023-02-19T02:59:28.871Z,101712.47
2023-02-19T03:02:14.752Z,101715.91
2023-02-19T03:05:23.980Z,101719.31
2023-02-19T03:08:10.169Z,101715.72
2023-02-19T03:11:24.352Z,101716.50
2023-02-19T03:14:16.742Z,101726.94
2023-02-19T03:17:06.713Z,101729.50
2023-02-19T03:19:42.164Z,101726.81
2023-02-19T03:22:17.640Z,101721.53
2023-02-19T03:25:18.808Z,101729.38
2023-02-19T03:27:48.152Z,101732.00
2023-02-19T03:30:25.211Z,101734.56
2023-02-19T03:33:03.430Z,101733.66
2023-02-19T03:35:45.050Z,101750.34
2023-02-19T03:38:20.386Z,101741.56
2023-02-19T03:41:02.418Z,101741.56
2023-02-19T03:44:02.912Z,101738.94
2023-02-19T03:46:48.602Z,101739.81
2023-02-19T03:49:56.667Z,101745.09
2023-02-19T03:52:41.459Z,101743.34
2023-02-19T03:55:25.001Z,101750.34
2023-02-19T03:57:55.371Z,101756.50
2023-02-19T04:00:39.856Z,101770.53
2023-02-19T04:03:29.009Z,101767.03
2023-02-19T04:06:04.331Z,101766.13
2023-02-19T04:08:35.497Z,101779.28
2023-02-19T04:11:03.416Z,101781.06
2023-02-19T04:13:43.551Z,101777.50
2023-02-19T04:16:20.543Z,101783.66
2023-02-19T04:18:53.197Z,101792.38
2023-02-19T04:21:22.523Z,101774.78
2023-02-19T04:23:50.399Z,101784.38
2023-02-19T04:26:21.022Z,101788.75
2023-02-19T04:28:48.013Z,101787.91
2023-02-19T04:31:15.286Z,101793.25
2023-02-19T04:33:42.340Z,101793.25
2023-02-19T04:36:11.681Z,101793.25
2023-02-19T04:38:39.068Z,101798.53
2023-02-19T04:41:06.312Z,101805.47
2023-02-19T04:43:33.533Z,101806.41
2023-02-19T04:46:01.978Z,101816.06
2023-02-19T04:48:29.542Z,101819.56
2023-02-19T04:50:56.760Z,101821.31
2023-02-19T04:53:24.278Z,101823.06
2023-02-19T04:55:53.381Z,101835.28
2023-02-19T04:58:21.329Z,101830.91
2023-02-19T05:00:53.148Z,101835.28
2023-02-19T05:03:20.544Z,101838.84
2023-02-19T05:05:47.584Z,101848.50
2023-02-19T05:08:14.633Z,101856.38
2023-02-19T05:10:41.627Z,101854.53
2023-02-19T05:13:09.112Z,101856.16
2023-02-19T05:15:36.499Z,101863.13
2023-02-19T05:18:04.080Z,101875.31
2023-02-19T05:20:31.051Z,101878.78
2023-02-19T05:22:58.285Z,101875.22
2023-02-19T05:25:25.481Z,101879.50
2023-02-19T05:28:12.574Z,101889.13
2023-02-19T05:30:39.573Z,101881.19
2023-02-19T05:33:06.920Z,101882.06
2023-02-19T05:35:34.076Z,101896.97
2023-02-19T05:38:01.200Z,101889.94
2023-02-19T05:40:28.300Z,101885.56
2023-02-19T05:42:55.568Z,101894.28
2023-02-19T05:45:22.668Z,101890.75
2023-02-19T05:47:50.381Z,101890.72
2023-02-19T05:50:17.859Z,101888.06
2023-02-19T05:52:45.268Z,101901.22
2023-02-19T05:55:12.841Z,101894.16
2023-02-19T05:57:45.202Z,101894.16
2023-02-19T06:00:18.633Z,101902.88
2023-02-19T06:02:46.121Z,101899.34
2023-02-19T06:05:14.475Z,101903.72
2023-02-19T06:07:42.899Z,101894.06
2023-02-19T06:10:12.786Z,101893.19
2023-02-19T06:12:40.082Z,101904.59
2023-02-19T06:15:07.726Z,101894.16
2023-02-19T06:17:35.341Z,101892.34
2023-02-19T06:20:03.288Z,101893.22
2023-02-19T06:22:30.600Z,101902.84
2023-02-19T06:24:58.133Z,101902.88
2023-02-19T06:27:25.235Z,101916.97
2023-02-19T06:29:52.328Z,101916.09
2023-02-19T06:32:19.790Z,101923.13
2023-02-19T06:34:46.925Z,101917.88
2023-02-19T06:37:13.871Z,101924.00
2023-02-19T06:39:40.922Z,101918.75
2023-02-19T06:42:08.093Z,101925.72
2023-02-19T06:44:35.503Z,101938.00
2023-02-19T06:47:02.751Z,101948.53
2023-02-19T06:49:30.208Z,101957.28
2023-02-19T06:51:57.380Z,101952.06
2023-02-19T06:54:25.992Z,101956.44
2023-02-19T06:56:53.419Z,101962.66
2023-02-19T06:59:20.434Z,101958.34
2023-02-19T07:01:47.825Z,101974.13
2023-02-19T07:04:15.914Z,101960.13
2023-02-19T07:06:43.352Z,101959.25
2023-02-19T07:09:11.381Z,101972.38
2023-02-19T07:11:40.316Z,101963.66
2023-02-19T07:14:13.861Z,101972.47
2023-02-19T07:16:41.196Z,101973.31
2023-02-19T07:19:08.254Z,101975.16
2023-02-19T07:21:37.803Z,101986.66
2023-02-19T07:24:06.051Z,101984.09
2023-02-19T07:26:33.233Z,101978.84
2023-02-19T07:29:01.712Z,101991.31
2023-02-19T07:31:29.498Z,101997.47
2023-02-19T07:33:56.952Z,101996.56
2023-02-19T07:36:25.383Z,102012.34
2023-02-19T07:39:00.066Z,102016.75
2023-02-19T07:41:28.276Z,102018.44
2023-02-19T07:43:55.405Z,102020.97
2023-02-19T07:46:23.623Z,102027.16
2023-02-19T07:48:50.696Z,102036.75
2023-02-19T07:51:20.018Z,102045.44
2023-02-19T07:53:50.293Z,102040.06
2023-02-19T07:56:19.844Z,102042.59
2023-02-19T07:58:47.110Z,102046.91
2023-02-19T08:01:18.571Z,102059.19
2023-02-19T08:03:48.209Z,102063.47
2023-02-19T08:06:16.468Z,102064.19
2023-02-19T08:08:43.631Z,102071.06
2023-02-19T08:11:29.210Z,102076.34
2023-02-19T08:13:56.452Z,102080.72
2023-02-19T08:16:40.721Z,102095.66
2023-02-19T08:19:10.058Z,102091.50
2023-02-19T08:21:37.047Z,102086.50
2023-02-19T08:24:04.828Z,102089.34
2023-02-19T08:26:33.613Z,102098.25
2023-02-19T08:29:00.999Z,102099.88
2023-02-19T08:31:28.380Z,102100.09
2023-02-19T08:33:55.452Z,102108.19
2023-02-19T08:36:22.470Z,102113.41
2023-02-19T08:38:49.699Z,102114.25
2023-02-19T08:41:16.829Z,102114.34
2023-02-19T08:43:44.497Z,102112.72
2023-02-19T08:46:12.978Z,102110.97
2023-02-19T08:48:40.458Z,102112.81
2023-02-19T08:51:11.645Z,102110.97
2023-02-19T08:53:40.866Z,102116.31
2023-02-19T08:56:14.989Z,102117.53
2023-02-19T08:58:43.578Z,102119.38
2023-02-19T09:01:14.141Z,102126.41
2023-02-19T09:03:42.119Z,102133.34
2023-02-19T09:06:16.836Z,102132.41
2023-02-19T09:08:44.086Z,102139.47
2023-02-19T09:11:12.884Z,102142.06
2023-02-19T09:13:40.299Z,102151.53
2023-02-19T09:16:08.211Z,102150.09
2023-02-19T09:18:36.268Z,102146.91
2023-02-19T09:21:06.031Z,102151.44
2023-02-19T09:23:35.309Z,102146.38
2023-02-19T09:26:06.841Z,102135.25
2023-02-19T09:28:34.243Z,102144.38
2023-02-19T09:31:07.940Z,102139.97
2023-02-19T09:33:35.519Z,102143.47
2023-02-19T09:36:04.137Z,102145.38
2023-02-19T09:38:31.456Z,102147.88
2023-02-19T09:41:00.216Z,102149.34
2023-02-19T09:43:29.903Z,102153.06
2023-02-19T09:46:35.110Z,102161.31
2023-02-19T09:49:13.645Z,102147.28
2023-02-19T09:51:46.067Z,102148.97
2023-02-19T09:54:26.659Z,102154.31
2023-02-19T09:56:56.834Z,102154.59
2023-02-19T09:59:41.038Z,102179.34
2023-02-19T10:02:24.686Z,102183.75
2023-02-19T10:04:53.527Z,102189.25
2023-02-19T10:07:25.907Z,102199.13
2023-02-19T10:10:02.475Z,102197.59
2023-02-19T10:12:32.136Z,102190.72
2023-02-19T10:15:16.894Z,102203.09
2023-02-19T10:17:43.852Z,102203.88
2023-02-19T10:20:24.805Z,102198.50
2023-02-19T10:23:03.987Z,102203.53
2023-02-19T10:36:30.525Z,102222.63
2023-02-19T10:39:05.790Z,102226.19
2023-02-19T10:41:33.214Z,102243.81
2023-02-19T10:44:07.575Z,102248.28
2023-02-19T10:46:47.018Z,102257.09
2023-02-19T10:49:32.964Z,102264.13
2023-02-19T10:52:18.730Z,102269.06
2023-02-19T10:54:50.046Z,102282.81
2023-02-19T10:57:21.288Z,102281.09
2023-02-19T10:59:57.964Z,102283.00
2023-02-19T11:02:26.204Z,102287.63
2023-02-19T11:05:09.660Z,102286.94
2023-02-19T11:07:58.270Z,102274.84
2023-02-19T11:10:29.866Z,102283.00
2023-02-19T11:13:02.318Z,102276.97
2023-02-19T11:15:36.488Z,102265.66
2023-02-19T11:18:12.448Z,102278.97
2023-02-19T11:21:04.756Z,102276.31
2023-02-19T11:23:44.000Z,102275.25
2023-02-19T11:26:25.520Z,102271.63
2023-02-19T11:29:02.529Z,102266.44
2023-02-19T11:31:35.417Z,102257.69
2023-02-19T11:34:14.918Z,102266.75
2023-02-19T11:36:42.648Z,102261.75
2023-02-19T11:39:27.940Z,102254.03
2023-02-19T11:42:03.910Z,102256.91
2023-02-19T11:44:56.582Z,102256.28
2023-02-19T11:47:57.733Z,102253.78
2023-02-19T11:50:46.407Z,102246.72
2023-02-19T11:53:32.217Z,102245.78
2023-02-19T11:56:28.754Z,102253.59
2023-02-19T11:59:00.827Z,102249.88
2023-02-19T12:04:59.522Z,102252.50
2023-02-19T12:07:38.337Z,102269.25
2023-02-19T12:10:23.211Z,102255.97
2023-02-19T12:13:28.286Z,102258.63
2023-02-19T12:16:25.488Z,102247.00
2023-02-19T12:19:57.737Z,102252.94
2023-02-19T12:22:31.175Z,102246.56
2023-02-19T12:25:12.385Z,102244.63
2023-02-19T12:28:24.004Z,102237.56
2023-02-19T12:31:06.453Z,102249.19
2023-02-19T12:34:08.226Z,102247.59
2023-02-19T12:36:46.997Z,102246.78
2023-02-19T12:39:41.560Z,102245.91
2023-02-19T12:42:42.380Z,102254.72
2023-02-19T12:45:39.091Z,102256.50
2023-02-19T12:48:44.929Z,102253.94
2023-02-19T12:51:24.049Z,102259.31
2023-02-19T12:54:06.085Z,102256.66
2023-02-19T12:56:55.285Z,102256.41
2023-02-19T12:59:42.434Z,102252.66
2023-02-19T13:02:27.692Z,102256.84
2023-02-19T13:05:21.359Z,102256.84
2023-02-19T13:08:04.160Z,102268.50
2023-02-19T13:10:41.779Z,102278.38
2023-02-19T13:13:45.047Z,102284.59
2023-02-19T13:16:18.706Z,102280.19
2023-02-19T13:19:05.014Z,102289.06
2023-02-19T13:21:55.480Z,102282.81
2023-02-19T13:24:41.677Z,102289.88
2023-02-19T13:27:35.823Z,102306.78
2023-02-19T13:30:20.587Z,102285.38
2023-02-19T13:33:21.364Z,102280.59
2023-02-19T13:36:06.326Z,102282.03
2023-02-19T13:41:32.270Z,102290.38
2023-02-19T13:44:08.349Z,102306.28
2023-02-19T13:46:43.376Z,102308.44
2023-02-19T13:49:34.643Z,102310.13
2023-02-19T13:52:22.089Z,102308.03
2023-02-19T13:54:49.633Z,102315.78
2023-02-19T13:57:26.956Z,102327.06
2023-02-19T13:59:58.546Z,102331.94
2023-02-19T14:02:32.209Z,102341.31
2023-02-19T14:05:12.930Z,102341.13
2023-02-19T14:07:56.021Z,102342.69
2023-02-19T14:11:02.657Z,102347.72
2023-02-19T14:13:51.359Z,102352.19
2023-02-19T14:16:35.256Z,102356.59
2023-02-19T14:19:02.493Z,102372.31
2023-02-19T14:21:40.889Z,102376.53
2023-02-19T14:24:14.794Z,102374.50
2023-02-19T14:26:42.515Z,102370.63
2023-02-19T14:29:14.687Z,102369.44
2023-02-19T14:31:46.217Z,102379.00
2023-02-19T14:34:23.687Z,102381.47
2023-02-19T14:37:06.882Z,102375.97
2023-02-19T14:39:40.526Z,102382.84
2023-02-19T14:42:23.741Z,102383.72
2023-02-19T14:44:58.236Z,102368.75
2023-02-19T14:47:30.954Z,102368.59
2023-02-19T14:50:15.327Z,102364.91
2023-02-19T14:52:50.121Z,102368.31
2023-02-19T14:55:38.653Z,102368.25
2023-02-19T14:58:13.538Z,102359.53
2023-02-19T15:00:42.614Z,102358.50
2023-02-19T15:03:35.886Z,102363.56
2023-02-19T15:06:21.444Z,102358.22
2023-02-19T15:08:53.522Z,102368.66
2023-02-19T15:11:27.038Z,102362.47
2023-02-19T15:14:02.877Z,102351.13
2023-02-19T15:16:36.163Z,102347.63
2023-02-19T15:19:10.448Z,102339.84
2023-02-19T15:21:44.550Z,102332.03
2023-02-19T15:24:15.504Z,102329.41
2023-02-19T15:26:54.199Z,102324.09
2023-02-19T15:29:26.410Z,102327.56
2023-02-19T15:31:59.710Z,102328.44
2023-02-19T15:34:30.047Z,102328.34
2023-02-19T15:37:09.683Z,102336.22
2023-02-19T15:39:48.193Z,102331.75
2023-02-19T15:42:25.934Z,102341.25
2023-02-19T15:45:01.260Z,102350.81
2023-02-19T15:48:01.152Z,102343.63
2023-02-19T15:50:35.668Z,102347.94
2023-02-19T15:53:23.237Z,102362.66
2023-02-19T15:56:32.308Z,102368.66
2023-02-19T15:59:22.522Z,102371.25
2023-02-19T16:01:50.223Z,102383.50
2023-02-19T16:04:19.759Z,102386.16
2023-02-19T16:07:03.988Z,102395.56
2023-02-19T16:09:39.732Z,102400.63
2023-02-19T16:12:24.922Z,102397.00
2023-02-19T16:14:51.982Z,102396.75
2023-02-19T16:17:23.244Z,102402.50
2023-02-19T16:19:59.866Z,102390.91
2023-02-19T16:22:33.193Z,102401.25
2023-02-19T16:25:06.817Z,102393.25
2023-02-19T16:27:40.089Z,102398.28
2023-02-19T16:30:33.821Z,102398.13
2023-02-19T16:33:42.834Z,102416.25
2023-02-19T16:36:41.575Z,102430.88
2023-02-19T16:39:23.410Z,102436.81
2023-02-19T16:41:50.332Z,102441.00
2023-02-19T16:44:27.500Z,102441.00
2023-02-19T16:47:13.791Z,102439.19
2023-02-19T16:49:42.705Z,102445.28
2023-02-19T16:52:15.588Z,102454.94
2023-02-19T16:54:43.434Z,102450.56
2023-02-19T16:57:10.703Z,102459.38
2023-02-19T16:59:37.935Z,102462.09
2023-02-19T17:02:09.191Z,102462.91
2023-02-19T17:04:36.744Z,102467.34
2023-02-19T17:07:03.949Z,102459.34
2023-02-19T17:09:31.235Z,102456.69
2023-02-19T17:11:58.566Z,102449.56
2023-02-19T17:14:25.879Z,102451.25
2023-02-19T17:16:53.206Z,102454.72
2023-02-19T17:19:23.072Z,102453.97
2023-02-19T17:21:50.334Z,102463.63
2023-02-19T17:24:17.798Z,102464.47
2023-02-19T17:26:45.252Z,102461.84
2023-02-19T17:29:15.578Z,102465.41
2023-02-19T17:31:42.957Z,102478.44
2023-02-19T17:34:10.582Z,102483.69
2023-02-19T17:36:42.921Z,102478.34
2023-02-19T17:39:15.205Z,102484.41
2023-02-19T17:41:42.508Z,102473.69
2023-02-19T17:44:10.559Z,102479.75
2023-02-19T17:46:39.136Z,102474.31
2023-02-19T17:49:07.590Z,102479.44
2023-02-19T17:51:35.493Z,102478.50
2023-02-19T17:54:02.613Z,102477.63
2023-02-19T17:56:29.839Z,102481.81
2023-02-19T17:58:58.499Z,102482.47
2023-02-19T18:01:25.836Z,102486.75
2023-02-19T18:03:53.018Z,102488.28
2023-02-19T18:06:20.888Z,102499.69
2023-02-19T18:08:51.154Z,102503.19
2023-02-19T18:11:19.623Z,102505.94
2023-02-19T18:13:48.118Z,102503.41
2023-02-19T18:16:18.140Z,102502.47
2023-02-19T18:18:45.693Z,102501.63
2023-02-19T18:21:14.241Z,102499.84
2023-02-19T18:23:42.229Z,102497.22
2023-02-19T18:26:10.882Z,102495.44
2023-02-19T18:28:38.472Z,102507.63
2023-02-19T18:31:06.448Z,102517.94
2023-02-19T18:33:35.016Z,102518.63
2023-02-19T18:36:03.105Z,102515.66
2023-02-19T18:38:30.217Z,102518.00
2023-02-19T18:40:58.773Z,102519.53
2023-02-19T18:43:26.416Z,102511.50
2023-02-19T18:45:53.813Z,102509.59
2023-02-19T18:48:21.164Z,102508.59
2023-02-19T18:50:48.348Z,102509.31
2023-02-19T18:53:15.614Z,102513.47
2023-02-19T18:55:43.054Z,102510.63
2023-02-19T18:58:10.443Z,102507.84
2023-02-19T19:00:37.831Z,102512.91
2023-02-19T19:03:05.140Z,102507.56
2023-02-19T19:05:34.471Z,102504.75
2023-02-19T19:08:02.166Z,102505.53
2023-02-19T19:10:31.004Z,102504.56
2023-02-19T19:12:58.675Z,102512.28
2023-02-19T19:15:26.546Z,102527.03
2023-02-19T19:17:53.933Z,102526.03
2023-02-19T19:20:23.267Z,102519.72
2023-02-19T19:22:54.383Z,102525.69
2023-02-19T19:25:23.136Z,102520.31
2023-02-19T19:27:54.678Z,102526.28
2023-02-19T19:30:22.008Z,102527.94
2023-02-19T19:32:52.065Z,102521.50
2023-02-19T19:35:21.010Z,102523.16
2023-02-19T19:37:48.921Z,102527.38
2023-02-19T19:40:18.158Z,102515.97
2023-02-19T19:42:45.606Z,102524.56
2023-02-19T19:45:13.844Z,102526.28
2023-02-19T19:47:41.857Z,102524.38
2023-02-19T19:50:10.136Z,102516.47
2023-02-19T19:52:37.348Z,102516.34
2023-02-19T19:55:05.997Z,102526.81
2023-02-19T19:57:33.146Z,102525.84
2023-02-19T20:00:01.061Z,102524.03
2023-02-19T20:02:28.433Z,102519.63
2023-02-19T20:04:55.728Z,102530.94
2023-02-19T20:07:22.986Z,102525.59
2023-02-19T20:09:50.669Z,102529.03
2023-02-19T20:12:18.090Z,102529.88
2023-02-19T20:14:46.739Z,102538.38
2023-02-19T20:17:14.936Z,102531.28
2023-02-19T20:19:42.447Z,102538.13
2023-02-19T20:22:09.511Z,102538.13
2023-02-19T20:24:36.714Z,102540.59
2023-02-19T20:27:04.464Z,102535.25
2023-02-19T20:29:34.768Z,102536.03
2023-02-19T20:32:03.767Z,102542.81
2023-02-19T20:34:31.643Z,102540.09
2023-02-19T20:36:59.016Z,102547.72
2023-02-19T20:39:29.042Z,102546.78
2023-02-19T20:41:57.822Z,102538.75
2023-02-19T20:44:27.255Z,102541.22
2023-02-19T20:46:55.116Z,102539.38
2023-02-19T20:49:25.822Z,102540.19
2023-02-19T20:51:58.174Z,102545.38
2023-02-19T20:54:29.310Z,102534.81
2023-02-19T20:56:59.144Z,102530.22
2023-02-19T20:59:30.954Z,102520.44
2023-02-19T21:02:24.650Z,102521.09
2023-02-19T21:04:51.701Z,102523.38
2023-02-19T21:07:18.906Z,102513.47
2023-02-19T21:09:45.940Z,102522.88
2023-02-19T21:12:13.169Z,102512.22
2023-02-19T21:14:40.631Z,102516.41
2023-02-19T21:17:07.893Z,102518.00
2023-02-19T21:19:35.218Z,102511.81
2023-02-19T21:22:02.438Z,102523.00
2023-02-19T21:24:29.845Z,102535.94
2023-02-19T21:26:56.862Z,102528.94
2023-02-19T21:29:24.197Z,102520.13
2023-02-19T21:31:55.303Z,102532.16
2023-02-19T21:34:26.612Z,102528.56
2023-02-19T21:36:59.916Z,102526.78
2023-02-19T21:39:28.548Z,102534.63
2023-02-19T21:41:58.527Z,102532.00
2023-02-19T21:44:26.342Z,102524.13
2023-02-19T21:46:53.521Z,102518.81
2023-02-19T21:49:20.687Z,102517.84
2023-02-19T21:51:50.939Z,102509.03
2023-02-19T21:54:27.035Z,102498.53
2023-02-19T21:56:54.828Z,102488.00
2023-02-19T21:59:23.255Z,102479.28
2023-02-19T22:01:51.067Z,102473.06
2023-02-19T22:04:20.844Z,102490.47
2023-02-19T22:06:48.122Z,102480.00
2023-02-19T22:09:16.187Z,102489.50
2023-02-19T22:11:43.531Z,102505.16
2023-02-19T22:14:10.827Z,102498.09
2023-02-19T22:16:38.011Z,102508.63
2023-02-19T22:19:05.472Z,102508.63
2023-02-19T22:21:33.155Z,102512.06
2023-02-19T22:24:02.706Z,102523.34
2023-02-19T22:26:33.603Z,102532.88
2023-02-19T22:29:05.934Z,102531.91
2023-02-19T22:31:34.675Z,102514.38
2023-02-19T22:34:01.995Z,102508.19
2023-02-19T22:36:31.874Z,102503.72
2023-02-19T22:39:00.137Z,102501.84
2023-02-19T22:41:27.612Z,102503.63
2023-02-19T22:43:57.562Z,102500.81
2023-02-19T22:46:28.781Z,102510.44
2023-02-19T22:48:56.090Z,102515.66
2023-02-19T22:51:24.710Z,102505.97
2023-02-19T22:53:57.635Z,102500.59
2023-02-19T22:56:28.459Z,102507.47
2023-02-19T22:58:57.384Z,102501.13
2023-02-19T23:01:25.345Z,102501.13
2023-02-19T23:03:56.600Z,102495.91
2023-02-19T23:06:26.692Z,102490.59
2023-02-19T23:08:56.567Z,102492.25
2023-02-19T23:11:30.235Z,102493.09
2023-02-19T23:13:58.296Z,102490.47
2023-02-19T23:16:25.599Z,102480.84
2023-02-19T23:18:52.989Z,102492.06
2023-02-19T23:21:20.979Z,102490.34
2023-02-19T23:23:48.629Z,102488.53
2023-02-19T23:26:16.837Z,102491.06
2023-02-19T23:28:45.390Z,102496.28
2023-02-19T23:31:13.335Z,102493.75
2023-02-19T23:33:41.758Z,102478.84
2023-02-19T23:36:13.490Z,102478.19
2023-02-19T23:38:43.440Z,102465.03
2023-02-19T23:41:13.094Z,102465.13
2023-02-19T23:43:40.273Z,102469.59
2023-02-19T23:46:07.818Z,102461.81
2023-02-19T23:48:36.278Z,102462.88
2023-02-19T23:51:03.523Z,102436.81
2023-02-19T23:53:31.019Z,102439.63
2023-02-19T23:55:58.298Z,102433.69
2023-02-19T23:58:25.490Z,102429.47
